createdAt,value
2022-12-23T00:00:10.912Z,3.09
2022-12-23T00:03:12.815Z,3.12
2022-12-23T00:06:16.455Z,3.15
2022-12-23T00:09:18.100Z,3.17
2022-12-23T00:12:38.371Z,3.15
2022-12-23T00:15:39.993Z,3.15
2022-12-23T00:18:42.499Z,3.03
2022-12-23T00:21:44.181Z,2.93
2022-12-23T00:24:45.827Z,2.84
2022-12-23T00:28:01.427Z,2.82
2022-12-23T00:31:05.955Z,2.87
2022-12-23T00:34:07.655Z,2.71
2022-12-23T00:37:09.307Z,2.69
2022-12-23T00:40:33.142Z,2.68
2022-12-23T00:43:34.774Z,2.97
2022-12-23T00:46:36.729Z,3.10
2022-12-23T00:49:44.256Z,2.82
2022-12-23T00:52:45.778Z,3.09
2022-12-23T00:55:47.983Z,2.92
2022-12-23T00:58:49.734Z,3.00
2022-12-23T01:02:10.207Z,2.65
2022-12-23T01:05:30.256Z,2.54
2022-12-23T01:08:31.887Z,2.67
2022-12-23T01:11:34.226Z,2.76
2022-12-23T01:14:35.946Z,2.89
2022-12-23T01:17:37.606Z,2.83
2022-12-23T01:20:40.258Z,2.77
2022-12-23T01:23:41.906Z,3.03
2022-12-23T01:26:43.657Z,3.06
2022-12-23T01:29:46.059Z,2.83
2022-12-23T01:32:47.803Z,2.93
2022-12-23T01:35:49.776Z,3.17
2022-12-23T01:38:51.691Z,2.96
2022-12-23T01:42:11.800Z,2.95
2022-12-23T01:45:24.863Z,2.97
2022-12-23T01:48:30.464Z,3.30
2022-12-23T01:51:32.358Z,3.17
2022-12-23T01:54:36.228Z,3.06
2022-12-23T01:57:41.741Z,3.32
2022-12-23T02:01:02.564Z,3.10
2022-12-23T02:04:08.063Z,3.07
2022-12-23T02:07:29.723Z,3.18
2022-12-23T02:10:44.661Z,3.42
2022-12-23T02:14:19.962Z,3.68
2022-12-23T02:17:28.190Z,3.72
2022-12-23T02:20:32.798Z,3.83
2022-12-23T02:23:43.761Z,3.91
2022-12-23T02:27:15.253Z,4.03
2022-12-23T02:30:48.870Z,3.90
2022-12-23T02:34:12.399Z,3.39
2022-12-23T02:37:20.169Z,3.46
2022-12-23T02:40:24.721Z,3.82
2022-12-23T02:43:51.514Z,3.87
2022-12-23T02:47:00.914Z,3.92
2022-12-23T02:50:09.121Z,3.96
2022-12-23T02:53:25.888Z,3.93
2022-12-23T02:56:30.567Z,3.90
2022-12-23T02:59:52.214Z,3.25
2022-12-23T03:02:53.974Z,3.21
2022-12-23T03:05:56.252Z,3.10
2022-12-23T03:09:00.396Z,3.10
2022-12-23T03:12:19.737Z,3.10
2022-12-23T03:15:41.493Z,2.80
2022-12-23T03:19:06.304Z,2.76
2022-12-23T03:22:13.990Z,2.54
2022-12-23T03:25:26.779Z,2.62
2022-12-23T03:28:34.640Z,2.64
2022-12-23T03:31:38.017Z,2.75
2022-12-23T03:34:44.470Z,2.74
2022-12-23T03:37:50.562Z,2.54
2022-12-23T03:41:00.893Z,2.49
2022-12-23T03:45:03.545Z,2.52
2022-12-23T03:48:31.838Z,2.44
2022-12-23T03:51:38.401Z,2.42
2022-12-23T03:54:52.137Z,2.75
2022-12-23T03:58:38.986Z,2.55
2022-12-23T04:02:17.880Z,2.31
2022-12-23T04:05:22.444Z,2.37
2022-12-23T04:08:30.215Z,2.43
2022-12-23T04:11:33.361Z,2.38
2022-12-23T04:14:36.752Z,2.28
2022-12-23T04:17:38.569Z,2.14
2022-12-23T04:20:40.283Z,2.19
2022-12-23T04:23:41.991Z,2.09
2022-12-23T04:26:43.675Z,2.20
2022-12-23T04:29:45.456Z,2.01
2022-12-23T04:32:47.141Z,2.05
2022-12-23T04:35:48.855Z,2.13
2022-12-23T04:38:50.526Z,2.19
2022-12-23T04:41:52.171Z,2.48
2022-12-23T04:44:53.925Z,2.61
2022-12-23T04:47:55.711Z,2.28
2022-12-23T04:50:57.352Z,2.30
2022-12-23T04:53:59.020Z,2.46
2022-12-23T04:57:00.860Z,2.44
2022-12-23T05:00:04.104Z,2.87
2022-12-23T05:03:06.286Z,2.92
2022-12-23T05:06:08.558Z,3.01
2022-12-23T05:09:10.308Z,3.19
2022-12-23T05:12:12.685Z,3.01
2022-12-23T05:15:14.334Z,3.00
2022-12-23T05:18:16.314Z,3.06
2022-12-23T05:21:18.127Z,2.99
2022-12-23T05:24:19.801Z,3.09
2022-12-23T05:27:21.483Z,3.39
2022-12-23T05:30:23.143Z,3.54
2022-12-23T05:33:24.840Z,3.56
2022-12-23T05:36:26.590Z,3.19
2022-12-23T05:39:28.235Z,3.46
2022-12-23T05:42:29.908Z,3.59
2022-12-23T05:45:31.654Z,3.43
2022-12-23T05:48:33.482Z,3.51
2022-12-23T05:51:35.146Z,3.78
2022-12-23T05:54:36.821Z,3.53
2022-12-23T05:57:38.600Z,3.40
2022-12-23T06:00:40.265Z,3.39
2022-12-23T06:03:42.030Z,3.62
2022-12-23T06:06:44.206Z,3.62
2022-12-23T06:09:45.912Z,3.64
2022-12-23T06:12:47.713Z,3.58
2022-12-23T06:15:49.471Z,3.50
2022-12-23T06:18:55.655Z,3.38
2022-12-23T06:21:57.296Z,3.38
2022-12-23T06:24:59.003Z,3.42
2022-12-23T06:28:00.693Z,3.41
2022-12-23T06:31:02.429Z,3.46
2022-12-23T06:34:04.126Z,3.63
2022-12-23T06:37:05.815Z,3.59
2022-12-23T06:40:08.069Z,3.66
2022-12-23T06:43:11.407Z,3.55
2022-12-23T06:46:14.279Z,3.30
2022-12-23T06:49:15.973Z,3.18
2022-12-23T06:52:17.736Z,3.52
2022-12-23T06:55:19.408Z,3.59
2022-12-23T06:58:21.030Z,3.50
2022-12-23T07:01:22.748Z,3.49
2022-12-23T07:04:24.453Z,3.45
2022-12-23T07:07:26.140Z,3.34
2022-12-23T07:10:27.814Z,3.64
2022-12-23T07:13:30.383Z,3.73
2022-12-23T07:16:32.170Z,3.93
2022-12-23T07:19:34.312Z,4.11
2022-12-23T07:22:35.943Z,3.79
2022-12-23T07:25:38.146Z,3.60
2022-12-23T07:28:40.009Z,3.68
2022-12-23T07:31:41.760Z,3.41
2022-12-23T07:34:43.581Z,3.32
2022-12-23T07:37:45.595Z,3.24
2022-12-23T07:40:49.168Z,3.48
2022-12-23T07:43:50.841Z,3.56
2022-12-23T07:46:52.474Z,3.41
2022-12-23T07:49:54.210Z,3.94
2022-12-23T07:52:56.183Z,3.56
2022-12-23T07:55:57.908Z,3.25
2022-12-23T07:58:59.567Z,3.64
2022-12-23T08:02:01.414Z,3.57
2022-12-23T08:05:03.253Z,3.43
2022-12-23T08:08:05.133Z,3.23
2022-12-23T08:11:09.202Z,3.22
2022-12-23T08:14:10.883Z,3.11
2022-12-23T08:17:12.611Z,3.02
2022-12-23T08:20:14.357Z,3.09
2022-12-23T08:23:19.997Z,3.32
2022-12-23T08:26:26.343Z,3.36
2022-12-23T08:29:31.286Z,3.71
2022-12-23T08:32:37.516Z,3.60
2022-12-23T08:35:39.274Z,3.45
2022-12-23T08:38:41.432Z,3.26
2022-12-23T08:41:45.814Z,3.17
2022-12-23T08:44:47.478Z,3.21
2022-12-23T08:47:49.136Z,3.68
2022-12-23T08:50:50.773Z,3.40
2022-12-23T08:54:00.473Z,3.78
2022-12-23T08:57:02.426Z,3.51
2022-12-23T09:00:04.537Z,3.34
2022-12-23T09:03:06.927Z,3.32
2022-12-23T09:06:16.712Z,3.07
2022-12-23T09:09:18.382Z,3.17
2022-12-23T09:12:20.057Z,3.06
2022-12-23T09:15:21.799Z,3.06
2022-12-23T09:18:23.441Z,3.18
2022-12-23T09:21:25.597Z,3.33
2022-12-23T09:24:27.262Z,3.38
2022-12-23T09:27:28.935Z,3.40
2022-12-23T09:30:30.602Z,3.67
2022-12-23T09:33:32.242Z,3.71
2022-12-23T09:36:34.068Z,3.64
2022-12-23T09:39:35.701Z,3.94
2022-12-23T09:43:16.085Z,3.62
2022-12-23T09:46:22.959Z,3.59
2022-12-23T09:49:24.694Z,3.62
2022-12-23T09:52:50.134Z,3.71
2022-12-23T09:56:00.410Z,3.50
2022-12-23T09:59:24.452Z,3.49
2022-12-23T10:02:48.341Z,3.66
2022-12-23T10:06:08.714Z,3.55
2022-12-23T10:09:13.598Z,3.60
2022-12-23T10:12:40.256Z,3.53
2022-12-23T10:15:47.380Z,3.45
2022-12-23T10:19:07.668Z,3.73
2022-12-23T10:22:23.913Z,3.67
2022-12-23T10:25:34.812Z,3.76
2022-12-23T10:28:36.477Z,3.83
2022-12-23T10:31:59.506Z,3.74
2022-12-23T10:35:35.576Z,3.87
2022-12-23T10:39:06.098Z,3.89
2022-12-23T10:42:42.383Z,4.09
2022-12-23T10:46:11.901Z,3.90
2022-12-23T10:49:38.359Z,3.89
2022-12-23T10:52:42.988Z,4.01
2022-12-23T10:55:45.461Z,4.10
2022-12-23T10:58:52.946Z,4.07
2022-12-23T11:02:02.419Z,4.23
2022-12-23T11:05:12.365Z,4.29
2022-12-23T11:08:14.162Z,4.50
2022-12-23T11:11:15.823Z,5.04
2022-12-23T11:14:32.807Z,4.77
2022-12-23T11:17:35.175Z,4.49
2022-12-23T11:20:37.519Z,4.73
2022-12-23T11:23:39.157Z,5.06
2022-12-23T11:26:41.292Z,5.52
2022-12-23T11:29:51.580Z,5.21
2022-12-23T11:32:54.152Z,5.06
2022-12-23T11:36:14.592Z,4.93
2022-12-23T11:39:20.648Z,5.14
2022-12-23T11:42:29.119Z,5.14
2022-12-23T11:45:36.042Z,5.05
2022-12-23T11:48:38.592Z,5.31
2022-12-23T11:51:40.476Z,5.63
2022-12-23T11:54:54.356Z,5.27
2022-12-23T11:57:56.753Z,5.78
2022-12-23T12:01:00.881Z,5.66
2022-12-23T12:04:17.877Z,6.05
2022-12-23T12:07:19.703Z,5.54
2022-12-23T12:10:26.258Z,5.71
2022-12-23T12:13:44.502Z,5.76
2022-12-23T12:16:55.295Z,6.31
2022-12-23T12:20:10.628Z,6.24
2022-12-23T12:23:21.168Z,6.04
2022-12-23T12:26:29.708Z,6.08
2022-12-23T12:29:34.253Z,6.06
2022-12-23T12:33:24.012Z,6.08
2022-12-23T12:36:52.771Z,6.21
2022-12-23T12:40:01.038Z,6.08
2022-12-23T12:43:14.456Z,6.09
2022-12-23T12:46:34.335Z,5.82
2022-12-23T12:49:43.366Z,6.19
2022-12-23T12:52:45.063Z,5.96
2022-12-23T12:55:57.231Z,5.93
2022-12-23T12:58:59.126Z,6.08
2022-12-23T13:02:00.924Z,6.42
2022-12-23T13:05:33.554Z,6.29
2022-12-23T13:08:51.391Z,6.21
2022-12-23T13:12:15.712Z,6.06
2022-12-23T13:15:20.143Z,6.15
2022-12-23T13:18:47.792Z,6.28
2022-12-23T13:22:09.011Z,6.42
2022-12-23T13:25:24.352Z,6.00
2022-12-23T13:28:33.128Z,5.87
2022-12-23T13:31:58.184Z,5.86
2022-12-23T13:35:18.970Z,5.74
2022-12-23T13:38:39.036Z,5.57
2022-12-23T13:41:53.545Z,5.63
2022-12-23T13:44:56.632Z,5.72
2022-12-23T13:48:13.223Z,5.70
2022-12-23T13:51:26.503Z,5.49
2022-12-23T13:54:37.113Z,5.42
2022-12-23T13:57:48.391Z,5.46
2022-12-23T14:00:58.831Z,5.30
2022-12-23T14:04:37.009Z,5.45
2022-12-23T14:07:38.735Z,5.32
2022-12-23T14:10:57.415Z,5.38
2022-12-23T14:14:01.617Z,5.28
2022-12-23T14:17:26.355Z,5.29
2022-12-23T14:20:36.688Z,5.40
2022-12-23T14:24:24.889Z,5.35
2022-12-23T14:27:35.349Z,5.34
2022-12-23T14:30:41.257Z,5.29
2022-12-23T14:33:48.883Z,5.30
2022-12-23T14:37:17.041Z,5.41
2022-12-23T14:40:37.046Z,5.41
2022-12-23T14:43:44.606Z,5.43
2022-12-23T14:46:46.160Z,5.42
2022-12-23T14:49:48.061Z,5.39
2022-12-23T14:52:59.324Z,5.41
2022-12-23T14:56:10.519Z,5.40
2022-12-23T14:59:33.139Z,5.40
2022-12-23T15:02:38.933Z,5.27
2022-12-23T15:05:40.881Z,5.32
2022-12-23T15:08:45.968Z,5.32
2022-12-23T15:11:48.202Z,5.56
2022-12-23T15:14:57.656Z,5.33
2022-12-23T15:18:20.464Z,5.53
2022-12-23T15:21:31.245Z,5.44
2022-12-23T15:24:32.913Z,5.48
2022-12-23T15:27:36.236Z,5.41
2022-12-23T15:30:48.295Z,5.56
2022-12-23T15:34:08.882Z,5.58
2022-12-23T15:37:15.823Z,5.70
2022-12-23T15:40:28.214Z,5.74
2022-12-23T15:43:30.452Z,5.63
2022-12-23T15:46:32.124Z,5.23
2022-12-23T15:49:33.834Z,5.33
2022-12-23T15:52:35.497Z,5.23
2022-12-23T15:55:41.341Z,5.45
2022-12-23T15:58:43.512Z,5.29
2022-12-23T16:01:45.318Z,5.23
2022-12-23T16:05:00.388Z,5.56
2022-12-23T16:08:15.992Z,5.63
2022-12-23T16:11:20.229Z,5.68
2022-12-23T16:14:31.056Z,5.72
2022-12-23T16:17:36.677Z,5.88
2022-12-23T16:20:47.685Z,5.58
2022-12-23T16:23:52.275Z,5.55
2022-12-23T16:26:56.341Z,5.46
2022-12-23T16:30:01.738Z,5.55
2022-12-23T16:33:23.505Z,5.67
2022-12-23T16:36:25.150Z,5.50
2022-12-23T16:39:26.866Z,5.75
2022-12-23T16:42:28.523Z,6.00
2022-12-23T16:45:34.446Z,5.95
2022-12-23T16:48:39.578Z,5.71
2022-12-23T16:51:41.359Z,5.40
2022-12-23T16:54:43.384Z,5.56
2022-12-23T16:57:45.890Z,5.95
2022-12-23T17:00:47.870Z,5.82
2022-12-23T17:03:49.995Z,5.78
2022-12-23T17:06:51.641Z,5.31
2022-12-23T17:09:54.310Z,5.32
2022-12-23T17:12:55.980Z,5.76
2022-12-23T17:15:57.682Z,6.00
2022-12-23T17:19:00.128Z,6.17
2022-12-23T17:22:03.406Z,6.02
2022-12-23T17:25:06.112Z,6.11
2022-12-23T17:28:10.881Z,6.18
2022-12-23T17:31:16.190Z,6.25
2022-12-23T17:34:24.390Z,5.97
2022-12-23T17:37:26.042Z,6.05
2022-12-23T17:40:27.737Z,5.54
2022-12-23T17:43:29.465Z,5.65
2022-12-23T17:46:31.494Z,5.29
2022-12-23T17:49:33.197Z,5.52
2022-12-23T17:52:34.863Z,5.59
2022-12-23T17:55:36.530Z,5.45
2022-12-23T17:58:38.829Z,5.84
2022-12-23T18:01:40.487Z,5.98
2022-12-23T18:04:43.245Z,5.77
2022-12-23T18:07:44.925Z,5.82
2022-12-23T18:10:46.563Z,5.46
2022-12-23T18:13:50.099Z,5.32
2022-12-23T18:16:51.787Z,5.75
2022-12-23T18:19:53.562Z,5.89
2022-12-23T18:22:55.505Z,5.59
2022-12-23T18:25:58.331Z,5.22
2022-12-23T18:28:59.961Z,5.41
2022-12-23T18:32:01.678Z,5.63
2022-12-23T18:35:03.817Z,5.49
2022-12-23T18:38:05.967Z,5.13
2022-12-23T18:41:12.122Z,5.12
2022-12-23T18:44:21.387Z,5.13
2022-12-23T18:47:23.180Z,5.22
2022-12-23T18:50:25.870Z,5.49
2022-12-23T18:53:27.569Z,5.56
2022-12-23T18:56:29.272Z,5.76
2022-12-23T18:59:33.034Z,5.79
2022-12-23T19:02:34.774Z,5.37
2022-12-23T19:05:37.882Z,5.32
2022-12-23T19:08:41.376Z,5.06
2022-12-23T19:11:43.658Z,5.27
2022-12-23T19:14:45.321Z,5.01
2022-12-23T19:17:48.143Z,5.14
2022-12-23T19:20:50.070Z,5.43
2022-12-23T19:23:51.748Z,5.51
2022-12-23T19:26:53.432Z,5.16
2022-12-23T19:29:55.230Z,5.39
2022-12-23T19:32:56.897Z,4.93
2022-12-23T19:35:58.653Z,4.84
2022-12-23T19:39:00.373Z,4.92
2022-12-23T19:42:02.065Z,5.12
2022-12-23T19:45:03.937Z,5.55
2022-12-23T19:48:06.027Z,5.41
2022-12-23T19:51:10.526Z,5.42
2022-12-23T19:54:12.277Z,5.46
2022-12-23T19:57:14.010Z,5.53
2022-12-23T20:00:16.145Z,4.99
2022-12-23T20:03:17.885Z,4.77
2022-12-23T20:06:21.336Z,4.70
2022-12-23T20:09:22.992Z,4.56
2022-12-23T20:12:26.732Z,4.68
2022-12-23T20:15:28.418Z,5.07
2022-12-23T20:18:30.499Z,4.90
2022-12-23T20:21:34.108Z,4.60
2022-12-23T20:24:36.298Z,4.62
2022-12-23T20:27:38.825Z,4.49
2022-12-23T20:30:42.758Z,4.74
2022-12-23T20:33:45.200Z,4.60
2022-12-23T20:36:47.133Z,4.90
2022-12-23T20:39:48.977Z,4.52
2022-12-23T20:42:50.720Z,4.28
2022-12-23T20:45:52.437Z,4.21
2022-12-23T20:48:54.392Z,4.10
2022-12-23T20:51:56.033Z,4.21
2022-12-23T20:54:57.798Z,4.26
2022-12-23T20:58:22.544Z,4.06
2022-12-23T21:01:31.746Z,3.98
2022-12-23T21:04:33.477Z,4.14
2022-12-23T21:07:35.138Z,4.60
2022-12-23T21:10:37.071Z,4.80
2022-12-23T21:13:40.504Z,4.91
2022-12-23T21:16:43.047Z,5.07
2022-12-23T21:19:44.848Z,4.77
2022-12-23T21:22:46.551Z,4.45
2022-12-23T21:25:48.208Z,4.44
2022-12-23T21:28:51.612Z,4.78
2022-12-23T21:31:53.465Z,4.84
2022-12-23T21:34:55.186Z,4.36
2022-12-23T21:37:56.833Z,4.26
2022-12-23T21:41:04.037Z,4.31
2022-12-23T21:44:06.001Z,4.19
2022-12-23T21:47:07.733Z,4.05
2022-12-23T21:50:09.889Z,4.15
2022-12-23T21:53:11.528Z,3.94
2022-12-23T21:56:15.870Z,3.81
2022-12-23T21:59:17.501Z,4.04
2022-12-23T22:02:19.258Z,3.84
2022-12-23T22:05:21.775Z,4.18
2022-12-23T22:08:23.376Z,4.44
2022-12-23T22:11:28.159Z,4.53
2022-12-23T22:14:29.864Z,4.59
2022-12-23T22:17:31.497Z,4.70
2022-12-23T22:20:33.161Z,4.76
2022-12-23T22:23:35.588Z,4.56
2022-12-23T22:26:37.452Z,4.68
2022-12-23T22:29:39.275Z,4.24
2022-12-23T22:32:42.755Z,4.11
2022-12-23T22:35:54.032Z,4.00
2022-12-23T22:38:58.169Z,3.81
2022-12-23T22:41:59.850Z,3.88
2022-12-23T22:45:01.676Z,3.81
2022-12-23T22:48:03.652Z,3.77
2022-12-23T22:51:14.513Z,3.66
2022-12-23T22:54:16.194Z,3.70
2022-12-23T22:57:17.830Z,3.62
2022-12-23T23:00:19.578Z,3.66
2022-12-23T23:03:21.574Z,3.77
2022-12-23T23:06:25.801Z,3.60
2022-12-23T23:09:27.534Z,3.55
2022-12-23T23:12:29.164Z,3.48
2022-12-23T23:15:30.829Z,3.48
2022-12-23T23:18:32.639Z,3.51
2022-12-23T23:21:34.395Z,3.56
2022-12-23T23:24:36.168Z,3.52
2022-12-23T23:27:37.848Z,3.52
2022-12-23T23:30:40.082Z,3.61
2022-12-23T23:33:41.718Z,3.68
2022-12-23T23:36:43.510Z,3.71
2022-12-23T23:39:45.282Z,3.70
2022-12-23T23:42:46.926Z,3.56
2022-12-23T23:45:49.130Z,3.52
2022-12-23T23:48:50.789Z,3.52
2022-12-23T23:51:52.520Z,3.58
2022-12-23T23:54:54.221Z,3.50
2022-12-23T23:57:55.922Z,3.57
